sensor_id;sensor_type;location;lat;lon;timestamp;temperature;humidity
53954;HTU21D;39862;54.856;26.318;2023-02-19T00:01:26;3.5;72.6
53954;HTU21D;39862;54.856;26.318;2023-02-19T00:06:26;3.5;72.8
53954;HTU21D;39862;54.856;26.318;2023-02-19T00:11:20;3.5;72.8
53954;HTU21D;39862;54.856;26.318;2023-02-19T00:16:24;3.5;72.8
53954;HTU21D;39862;54.856;26.318;2023-02-19T00:21:24;3.5;72.7
53954;HTU21D;39862;54.856;26.318;2023-02-19T00:26:38;3.5;72.8
53954;HTU21D;39862;54.856;26.318;2023-02-19T00:31:19;3.5;72.7
53954;HTU21D;39862;54.856;26.318;2023-02-19T00:36:18;3.5;72.6
53954;HTU21D;39862;54.856;26.318;2023-02-19T00:41:12;3.4;72.4
53954;HTU21D;39862;54.856;26.318;2023-02-19T00:46:12;3.4;72.4
53954;HTU21D;39862;54.856;26.318;2023-02-19T00:51:38;3.4;72.5
53954;HTU21D;39862;54.856;26.318;2023-02-19T00:56:26;3.4;72.6
53954;HTU21D;39862;54.856;26.318;2023-02-19T01:01:26;3.3;72.6
53954;HTU21D;39862;54.856;26.318;2023-02-19T01:06:38;3.3;72.7
53954;HTU21D;39862;54.856;26.318;2023-02-19T01:11:12;3.3;72.8
53954;HTU21D;39862;54.856;26.318;2023-02-19T01:16:26;3.4;72.7
53954;HTU21D;39862;54.856;26.318;2023-02-19T01:21:12;3.4;72.7
53954;HTU21D;39862;54.856;26.318;2023-02-19T01:26:32;3.4;72.7
53954;HTU21D;39862;54.856;26.318;2023-02-19T01:31:12;3.4;72.7
53954;HTU21D;39862;54.856;26.318;2023-02-19T01:36:24;3.4;72.5
53954;HTU21D;39862;54.856;26.318;2023-02-19T01:41:24;3.4;72.5
53954;HTU21D;39862;54.856;26.318;2023-02-19T01:46:20;3.4;72.4
53954;HTU21D;39862;54.856;26.318;2023-02-19T01:51:13;3.4;72.3
53954;HTU21D;39862;54.856;26.318;2023-02-19T01:56:24;3.3;72.2
53954;HTU21D;39862;54.856;26.318;2023-02-19T02:01:12;3.3;72.3
53954;HTU21D;39862;54.856;26.318;2023-02-19T02:06:12;3.3;72.4
53954;HTU21D;39862;54.856;26.318;2023-02-19T02:11:12;3.3;72.5
53954;HTU21D;39862;54.856;26.318;2023-02-19T02:16:15;3.3;72.5
53954;HTU21D;39862;54.856;26.318;2023-02-19T02:21:32;3.3;72.5
53954;HTU21D;39862;54.856;26.318;2023-02-19T02:26:30;3.2;72.4
53954;HTU21D;39862;54.856;26.318;2023-02-19T02:31:12;3.2;72.3
53954;HTU21D;39862;54.856;26.318;2023-02-19T02:36:14;3.2;72.3
53954;HTU21D;39862;54.856;26.318;2023-02-19T02:41:34;3.1;72.3
53954;HTU21D;39862;54.856;26.318;2023-02-19T02:46:12;3.1;72.2
53954;HTU21D;39862;54.856;26.318;2023-02-19T02:51:13;3;72.2
53954;HTU21D;39862;54.856;26.318;2023-02-19T02:56:18;3;72.3
53954;HTU21D;39862;54.856;26.318;2023-02-19T03:01:26;2.9;72.4
53954;HTU21D;39862;54.856;26.318;2023-02-19T03:06:32;2.9;72.4
53954;HTU21D;39862;54.856;26.318;2023-02-19T03:11:18;2.9;72.4
53954;HTU21D;39862;54.856;26.318;2023-02-19T03:16:14;2.9;72.6
53954;HTU21D;39862;54.856;26.318;2023-02-19T03:21:12;2.9;72.8
53954;HTU21D;39862;54.856;26.318;2023-02-19T03:26:12;2.9;72.8
53954;HTU21D;39862;54.856;26.318;2023-02-19T03:31:12;2.9;73
53954;HTU21D;39862;54.856;26.318;2023-02-19T03:36:18;2.9;73.1
53954;HTU21D;39862;54.856;26.318;2023-02-19T03:41:14;2.9;73
53954;HTU21D;39862;54.856;26.318;2023-02-19T03:46:41;3;73.2
53954;HTU21D;39862;54.856;26.318;2023-02-19T03:51:23;2.9;73.3
53954;HTU21D;39862;54.856;26.318;2023-02-19T03:56:12;3;73.3
53954;HTU21D;39862;54.856;26.318;2023-02-19T04:01:12;3;73.3
53954;HTU21D;39862;54.856;26.318;2023-02-19T04:06:47;3;73.3
53954;HTU21D;39862;54.856;26.318;2023-02-19T04:11:36;3;73.3
53954;HTU21D;39862;54.856;26.318;2023-02-19T04:16:13;3;73.2
53954;HTU21D;39862;54.856;26.318;2023-02-19T04:21:26;3;73.1
53954;HTU21D;39862;54.856;26.318;2023-02-19T04:26:12;3;73
53954;HTU21D;39862;54.856;26.318;2023-02-19T04:32:00;3;72.9
53954;HTU21D;39862;54.856;26.318;2023-02-19T04:36:38;3;72.9
53954;HTU21D;39862;54.856;26.318;2023-02-19T04:41:26;3;72.9
53954;HTU21D;39862;54.856;26.318;2023-02-19T04:46:44;3;72.8
53954;HTU21D;39862;54.856;26.318;2023-02-19T04:51:20;3;72.8
53954;HTU21D;39862;54.856;26.318;2023-02-19T04:56:13;3;72.8
53954;HTU21D;39862;54.856;26.318;2023-02-19T05:01:26;3;72.8
53954;HTU21D;39862;54.856;26.318;2023-02-19T05:06:12;3;72.9
53954;HTU21D;39862;54.856;26.318;2023-02-19T05:11:24;3;72.8
53954;HTU21D;39862;54.856;26.318;2023-02-19T05:16:12;3;72.8
53954;HTU21D;39862;54.856;26.318;2023-02-19T05:21:24;3;72.6
53954;HTU21D;39862;54.856;26.318;2023-02-19T05:26:24;3;72.6
53954;HTU21D;39862;54.856;26.318;2023-02-19T05:31:18;2.9;72.4
53954;HTU21D;39862;54.856;26.318;2023-02-19T05:36:32;2.9;72.3
53954;HTU21D;39862;54.856;26.318;2023-02-19T05:41:12;2.9;72.4
53954;HTU21D;39862;54.856;26.318;2023-02-19T05:46:12;2.9;72.4
53954;HTU21D;39862;54.856;26.318;2023-02-19T05:51:26;2.9;72.4
53954;HTU21D;39862;54.856;26.318;2023-02-19T05:56:22;2.9;72.4
53954;HTU21D;39862;54.856;26.318;2023-02-19T06:01:13;2.9;72.4
53954;HTU21D;39862;54.856;26.318;2023-02-19T06:06:26;2.9;72.4
53954;HTU21D;39862;54.856;26.318;2023-02-19T06:11:12;2.9;72.3
53954;HTU21D;39862;54.856;26.318;2023-02-19T06:16:12;2.9;72.4
53954;HTU21D;39862;54.856;26.318;2023-02-19T06:21:12;2.9;72.4
53954;HTU21D;39862;54.856;26.318;2023-02-19T06:26:26;2.9;72.3
53954;HTU21D;39862;54.856;26.318;2023-02-19T06:31:18;2.9;72.2
53954;HTU21D;39862;54.856;26.318;2023-02-19T06:36:24;2.9;72.2
53954;HTU21D;39862;54.856;26.318;2023-02-19T06:41:12;2.9;72.2
53954;HTU21D;39862;54.856;26.318;2023-02-19T06:46:12;3;72.1
53954;HTU21D;39862;54.856;26.318;2023-02-19T06:51:32;3;71.9
53954;HTU21D;39862;54.856;26.318;2023-02-19T06:56:27;3;72
53954;HTU21D;39862;54.856;26.318;2023-02-19T07:01:38;3;71.9
53954;HTU21D;39862;54.856;26.318;2023-02-19T07:06:12;3;71.8
53954;HTU21D;39862;54.856;26.318;2023-02-19T07:11:38;3;71.7
53954;HTU21D;39862;54.856;26.318;2023-02-19T07:16:12;3.1;71.5
53954;HTU21D;39862;54.856;26.318;2023-02-19T07:21:20;3.1;71.2
53954;HTU21D;39862;54.856;26.318;2023-02-19T07:26:13;3.1;70.9
53954;HTU21D;39862;54.856;26.318;2023-02-19T07:31:12;3.2;70.9
53954;HTU21D;39862;54.856;26.318;2023-02-19T07:36:44;3.3;71
53954;HTU21D;39862;54.856;26.318;2023-02-19T07:41:18;3.3;71
53954;HTU21D;39862;54.856;26.318;2023-02-19T07:46:12;3.4;70.9
53954;HTU21D;39862;54.856;26.318;2023-02-19T07:51:26;3.5;70.8
53954;HTU21D;39862;54.856;26.318;2023-02-19T07:56:12;3.5;70.5
53954;HTU21D;39862;54.856;26.318;2023-02-19T08:01:13;3.6;70.4
53954;HTU21D;39862;54.856;26.318;2023-02-19T08:06:12;3.6;70.2
53954;HTU21D;39862;54.856;26.318;2023-02-19T08:11:12;3.7;70.6
53954;HTU21D;39862;54.856;26.318;2023-02-19T08:16:26;3.8;70.7
53954;HTU21D;39862;54.856;26.318;2023-02-19T08:21:12;3.9;70.5
53954;HTU21D;39862;54.856;26.318;2023-02-19T08:26:12;4;70.5
53954;HTU21D;39862;54.856;26.318;2023-02-19T08:31:12;4.2;70.2
53954;HTU21D;39862;54.856;26.318;2023-02-19T08:37:00;4.3;69.9
53954;HTU21D;39862;54.856;26.318;2023-02-19T08:41:38;4.4;69.5
53954;HTU21D;39862;54.856;26.318;2023-02-19T08:46:12;4.5;68.9
53954;HTU21D;39862;54.856;26.318;2023-02-19T08:51:12;4.6;69.2
53954;HTU21D;39862;54.856;26.318;2023-02-19T08:56:12;4.8;69.2
53954;HTU21D;39862;54.856;26.318;2023-02-19T09:01:12;5;69.2
53954;HTU21D;39862;54.856;26.318;2023-02-19T09:06:26;5.2;68.4
53954;HTU21D;39862;54.856;26.318;2023-02-19T09:11:12;5.5;67.9
53954;HTU21D;39862;54.856;26.318;2023-02-19T09:16:24;5.7;67.3
53954;HTU21D;39862;54.856;26.318;2023-02-19T09:21:44;5.9;65.1
53954;HTU21D;39862;54.856;26.318;2023-02-19T09:26:12;5.9;63.7
53954;HTU21D;39862;54.856;26.318;2023-02-19T09:31:38;5.9;63.2
53954;HTU21D;39862;54.856;26.318;2023-02-19T09:36:26;5.8;62.3
53954;HTU21D;39862;54.856;26.318;2023-02-19T09:41:14;5.7;62.4
53954;HTU21D;39862;54.856;26.318;2023-02-19T09:46:27;5.7;62.2
53954;HTU21D;39862;54.856;26.318;2023-02-19T09:51:20;5.7;62.2
53954;HTU21D;39862;54.856;26.318;2023-02-19T09:56:26;5.8;62.8
53954;HTU21D;39862;54.856;26.318;2023-02-19T10:01:12;5.9;62.8
53954;HTU21D;39862;54.856;26.318;2023-02-19T10:06:26;6.2;62.8
53954;HTU21D;39862;54.856;26.318;2023-02-19T10:11:26;6.5;63.2
53954;HTU21D;39862;54.856;26.318;2023-02-19T10:16:35;6.9;62.5
53954;HTU21D;39862;54.856;26.318;2023-02-19T10:21:34;7.3;61.2
53954;HTU21D;39862;54.856;26.318;2023-02-19T10:26:38;7.6;60
53954;HTU21D;39862;54.856;26.318;2023-02-19T10:31:24;7.7;57.5
53954;HTU21D;39862;54.856;26.318;2023-02-19T10:36:35;7.8;57.2
53954;HTU21D;39862;54.856;26.318;2023-02-19T10:41:12;7.9;57.6
53954;HTU21D;39862;54.856;26.318;2023-02-19T10:46:24;8;55.9
53954;HTU21D;39862;54.856;26.318;2023-02-19T10:51:38;8;54.7
53954;HTU21D;39862;54.856;26.318;2023-02-19T10:56:13;8;54.4
53954;HTU21D;39862;54.856;26.318;2023-02-19T11:01:13;8;54.2
53954;HTU21D;39862;54.856;26.318;2023-02-19T11:06:12;8;54.3
53954;HTU21D;39862;54.856;26.318;2023-02-19T11:11:25;8;52.4
53954;HTU21D;39862;54.856;26.318;2023-02-19T11:16:12;7.9;51.6
53954;HTU21D;39862;54.856;26.318;2023-02-19T11:21:38;7.7;52
53954;HTU21D;39862;54.856;26.318;2023-02-19T11:26:15;7.6;52
53954;HTU21D;39862;54.856;26.318;2023-02-19T11:31:26;7.4;51
53954;HTU21D;39862;54.856;26.318;2023-02-19T11:36:17;7.3;51.9
53954;HTU21D;39862;54.856;26.318;2023-02-19T11:41:27;7.2;51.5
53954;HTU21D;39862;54.856;26.318;2023-02-19T11:46:25;7.2;52
53954;HTU21D;39862;54.856;26.318;2023-02-19T11:51:15;7.1;51.7
53954;HTU21D;39862;54.856;26.318;2023-02-19T11:56:35;7;51.6
53954;HTU21D;39862;54.856;26.318;2023-02-19T12:01:48;6.9;51.8
53954;HTU21D;39862;54.856;26.318;2023-02-19T12:06:40;6.8;51.5
53954;HTU21D;39862;54.856;26.318;2023-02-19T12:11:52;6.7;50.8
53954;HTU21D;39862;54.856;26.318;2023-02-19T12:16:35;6.7;51
53954;HTU21D;39862;54.856;26.318;2023-02-19T12:21:23;6.8;51.4
53954;HTU21D;39862;54.856;26.318;2023-02-19T12:26:15;6.8;51.6
53954;HTU21D;39862;54.856;26.318;2023-02-19T12:31:47;6.7;51.4
53954;HTU21D;39862;54.856;26.318;2023-02-19T12:36:25;6.6;51.3
53954;HTU21D;39862;54.856;26.318;2023-02-19T12:41:17;6.4;51.4
53954;HTU21D;39862;54.856;26.318;2023-02-19T12:46:21;6.2;52.2
53954;HTU21D;39862;54.856;26.318;2023-02-19T12:51:13;6;53.1
53954;HTU21D;39862;54.856;26.318;2023-02-19T12:56:13;5.8;54.2
53954;HTU21D;39862;54.856;26.318;2023-02-19T13:01:25;5.6;54.6
53954;HTU21D;39862;54.856;26.318;2023-02-19T13:06:22;5.4;55.1
53954;HTU21D;39862;54.856;26.318;2023-02-19T13:11:13;5.2;55.5
53954;HTU21D;39862;54.856;26.318;2023-02-19T13:16:12;5;55.7
53954;HTU21D;39862;54.856;26.318;2023-02-19T13:21:12;4.8;55.9
53954;HTU21D;39862;54.856;26.318;2023-02-19T13:26:17;4.6;55.7
53954;HTU21D;39862;54.856;26.318;2023-02-19T13:31:18;4.4;55.8
53954;HTU21D;39862;54.856;26.318;2023-02-19T13:36:13;4.3;56.3
53954;HTU21D;39862;54.856;26.318;2023-02-19T13:41:20;4.2;56.5
53954;HTU21D;39862;54.856;26.318;2023-02-19T13:46:13;4;56.6
53954;HTU21D;39862;54.856;26.318;2023-02-19T13:56:36;3.8;57.5
53954;HTU21D;39862;54.856;26.318;2023-02-19T14:01:12;3.7;57.8
53954;HTU21D;39862;54.856;26.318;2023-02-19T14:06:12;3.7;57.9
53954;HTU21D;39862;54.856;26.318;2023-02-19T14:12:32;3.7;58.2
53954;HTU21D;39862;54.856;26.318;2023-02-19T14:16:27;3.8;58.4
53954;HTU21D;39862;54.856;26.318;2023-02-19T14:21:34;3.8;58.7
53954;HTU21D;39862;54.856;26.318;2023-02-19T14:26:20;3.8;58.5
53954;HTU21D;39862;54.856;26.318;2023-02-19T14:31:28;3.8;58.6
53954;HTU21D;39862;54.856;26.318;2023-02-19T14:36:39;3.8;58.6
53954;HTU21D;39862;54.856;26.318;2023-02-19T14:41:24;3.8;58.3
53954;HTU21D;39862;54.856;26.318;2023-02-19T14:46:27;3.8;58.3
53954;HTU21D;39862;54.856;26.318;2023-02-19T14:51:13;3.8;58.2
53954;HTU21D;39862;54.856;26.318;2023-02-19T14:56:25;3.8;58.6
53954;HTU21D;39862;54.856;26.318;2023-02-19T15:01:24;3.8;58.8
53954;HTU21D;39862;54.856;26.318;2023-02-19T15:06:38;3.8;58.8
53954;HTU21D;39862;54.856;26.318;2023-02-19T15:11:46;3.8;58.7
53954;HTU21D;39862;54.856;26.318;2023-02-19T15:16:16;3.8;58.5
53954;HTU21D;39862;54.856;26.318;2023-02-19T15:21:18;3.7;58.2
53954;HTU21D;39862;54.856;26.318;2023-02-19T15:26:15;3.7;58.4
53954;HTU21D;39862;54.856;26.318;2023-02-19T15:31:24;3.7;58.6
53954;HTU21D;39862;54.856;26.318;2023-02-19T15:36:27;3.6;58.6
53954;HTU21D;39862;54.856;26.318;2023-02-19T15:41:20;3.6;58.4
53954;HTU21D;39862;54.856;26.318;2023-02-19T15:46:13;3.5;58.5
53954;HTU21D;39862;54.856;26.318;2023-02-19T15:51:41;3.5;58.5
53954;HTU21D;39862;54.856;26.318;2023-02-19T15:56:14;3.4;58.3
53954;HTU21D;39862;54.856;26.318;2023-02-19T16:01:13;3.3;58.7
53954;HTU21D;39862;54.856;26.318;2023-02-19T16:06:20;3.3;59.1
53954;HTU21D;39862;54.856;26.318;2023-02-19T16:11:27;3.2;59.1
53954;HTU21D;39862;54.856;26.318;2023-02-19T16:16:24;3.2;59.4
53954;HTU21D;39862;54.856;26.318;2023-02-19T16:21:20;3.1;59.5
53954;HTU21D;39862;54.856;26.318;2023-02-19T16:26:12;3.1;59.7
53954;HTU21D;39862;54.856;26.318;2023-02-19T16:31:32;3.1;59.8
53954;HTU21D;39862;54.856;26.318;2023-02-19T16:36:34;3.1;60.1
53954;HTU21D;39862;54.856;26.318;2023-02-19T16:41:26;3.1;59.8
53954;HTU21D;39862;54.856;26.318;2023-02-19T16:46:32;3;59.9
53954;HTU21D;39862;54.856;26.318;2023-02-19T16:51:52;3;60
53954;HTU21D;39862;54.856;26.318;2023-02-19T16:56:12;3;59.8
53954;HTU21D;39862;54.856;26.318;2023-02-19T17:01:12;2.9;60
53954;HTU21D;39862;54.856;26.318;2023-02-19T17:06:28;2.9;60.3
53954;HTU21D;39862;54.856;26.318;2023-02-19T17:11:24;2.9;60.3
53954;HTU21D;39862;54.856;26.318;2023-02-19T17:16:27;2.9;60.4
53954;HTU21D;39862;54.856;26.318;2023-02-19T17:21:13;2.9;60.6
53954;HTU21D;39862;54.856;26.318;2023-02-19T17:26:12;2.9;60.6
53954;HTU21D;39862;54.856;26.318;2023-02-19T17:31:26;2.9;60.7
53954;HTU21D;39862;54.856;26.318;2023-02-19T17:36:15;2.9;60.7
53954;HTU21D;39862;54.856;26.318;2023-02-19T17:41:12;2.9;60.9
53954;HTU21D;39862;54.856;26.318;2023-02-19T17:46:13;2.8;61
53954;HTU21D;39862;54.856;26.318;2023-02-19T17:51:26;2.8;61.1
53954;HTU21D;39862;54.856;26.318;2023-02-19T17:56:14;2.8;61
53954;HTU21D;39862;54.856;26.318;2023-02-19T18:01:24;2.8;61
53954;HTU21D;39862;54.856;26.318;2023-02-19T18:06:26;2.7;60.6
53954;HTU21D;39862;54.856;26.318;2023-02-19T18:11:32;2.6;60.7
53954;HTU21D;39862;54.856;26.318;2023-02-19T18:16:43;2.6;60.8
53954;HTU21D;39862;54.856;26.318;2023-02-19T18:21:12;2.6;60.7
53954;HTU21D;39862;54.856;26.318;2023-02-19T18:26:24;2.6;61.2
53954;HTU21D;39862;54.856;26.318;2023-02-19T18:31:38;2.6;61.4
53954;HTU21D;39862;54.856;26.318;2023-02-19T18:36:34;2.6;61.5
53954;HTU21D;39862;54.856;26.318;2023-02-19T18:41:26;2.6;61.5
53954;HTU21D;39862;54.856;26.318;2023-02-19T18:46:26;2.6;61.6
53954;HTU21D;39862;54.856;26.318;2023-02-19T18:51:32;2.6;61.6
53954;HTU21D;39862;54.856;26.318;2023-02-19T18:56:24;2.6;61.7
53954;HTU21D;39862;54.856;26.318;2023-02-19T19:01:12;2.6;61.7
53954;HTU21D;39862;54.856;26.318;2023-02-19T19:06:38;2.6;61.7
53954;HTU21D;39862;54.856;26.318;2023-02-19T19:11:40;2.6;61.6
53954;HTU21D;39862;54.856;26.318;2023-02-19T19:16:12;2.6;61.5
53954;HTU21D;39862;54.856;26.318;2023-02-19T19:21:40;2.6;61.2
53954;HTU21D;39862;54.856;26.318;2023-02-19T19:26:34;2.6;61.1
53954;HTU21D;39862;54.856;26.318;2023-02-19T19:31:12;2.6;61.2
53954;HTU21D;39862;54.856;26.318;2023-02-19T19:36:40;2.6;61.1
53954;HTU21D;39862;54.856;26.318;2023-02-19T19:41:24;2.6;61.1
53954;HTU21D;39862;54.856;26.318;2023-02-19T19:46:12;2.6;61.3
53954;HTU21D;39862;54.856;26.318;2023-02-19T19:51:34;2.6;61.1
53954;HTU21D;39862;54.856;26.318;2023-02-19T19:56:24;2.6;60.9
53954;HTU21D;39862;54.856;26.318;2023-02-19T20:01:26;2.6;61.1
53954;HTU21D;39862;54.856;26.318;2023-02-19T20:06:12;2.6;61.1
53954;HTU21D;39862;54.856;26.318;2023-02-19T20:11:12;2.6;61.1
53954;HTU21D;39862;54.856;26.318;2023-02-19T20:16:24;2.6;61.2
53954;HTU21D;39862;54.856;26.318;2023-02-19T20:21:26;2.6;61.2
53954;HTU21D;39862;54.856;26.318;2023-02-19T20:26:12;2.6;61.2
53954;HTU21D;39862;54.856;26.318;2023-02-19T20:31:12;2.6;61.1
53954;HTU21D;39862;54.856;26.318;2023-02-19T20:36:12;2.6;61
53954;HTU21D;39862;54.856;26.318;2023-02-19T20:41:12;2.5;61
53954;HTU21D;39862;54.856;26.318;2023-02-19T20:46:24;2.5;61
53954;HTU21D;39862;54.856;26.318;2023-02-19T20:51:12;2.5;61.1
53954;HTU21D;39862;54.856;26.318;2023-02-19T20:56:22;2.5;61.1
53954;HTU21D;39862;54.856;26.318;2023-02-19T21:01:40;2.5;61.2
53954;HTU21D;39862;54.856;26.318;2023-02-19T21:06:12;2.5;61.2
53954;HTU21D;39862;54.856;26.318;2023-02-19T21:11:12;2.5;60.9
53954;HTU21D;39862;54.856;26.318;2023-02-19T21:16:26;2.5;61
53954;HTU21D;39862;54.856;26.318;2023-02-19T21:21:15;2.5;61.3
53954;HTU21D;39862;54.856;26.318;2023-02-19T21:26:31;2.5;61.3
53954;HTU21D;39862;54.856;26.318;2023-02-19T21:31:18;2.5;61.3
53954;HTU21D;39862;54.856;26.318;2023-02-19T21:36:22;2.5;61.3
53954;HTU21D;39862;54.856;26.318;2023-02-19T21:41:12;2.5;60.9
53954;HTU21D;39862;54.856;26.318;2023-02-19T21:46:16;2.4;61
53954;HTU21D;39862;54.856;26.318;2023-02-19T21:51:28;2.4;61.3
53954;HTU21D;39862;54.856;26.318;2023-02-19T21:56:20;2.4;61.2
53954;HTU21D;39862;54.856;26.318;2023-02-19T22:01:12;2.4;61.6
53954;HTU21D;39862;54.856;26.318;2023-02-19T22:06:12;2.4;61.6
53954;HTU21D;39862;54.856;26.318;2023-02-19T22:11:12;2.4;61.7
53954;HTU21D;39862;54.856;26.318;2023-02-19T22:16:26;2.4;61.7
53954;HTU21D;39862;54.856;26.318;2023-02-19T22:21:21;2.4;61.7
53954;HTU21D;39862;54.856;26.318;2023-02-19T22:26:36;2.4;61.9
53954;HTU21D;39862;54.856;26.318;2023-02-19T22:31:12;2.5;61.9
53954;HTU21D;39862;54.856;26.318;2023-02-19T22:36:23;2.4;61.9
53954;HTU21D;39862;54.856;26.318;2023-02-19T22:41:40;2.4;61.6
53954;HTU21D;39862;54.856;26.318;2023-02-19T22:46:34;2.4;61.6
53954;HTU21D;39862;54.856;26.318;2023-02-19T22:51:36;2.4;61.6
53954;HTU21D;39862;54.856;26.318;2023-02-19T22:56:12;2.3;61.8
53954;HTU21D;39862;54.856;26.318;2023-02-19T23:01:12;2.3;61.9
53954;HTU21D;39862;54.856;26.318;2023-02-19T23:06:12;2.3;61.8
53954;HTU21D;39862;54.856;26.318;2023-02-19T23:11:46;2.3;61.7
53954;HTU21D;39862;54.856;26.318;2023-02-19T23:16:26;2.3;61.7
53954;HTU21D;39862;54.856;26.318;2023-02-19T23:21:26;2.3;61.7
53954;HTU21D;39862;54.856;26.318;2023-02-19T23:31:40;2.3;61.7
53954;HTU21D;39862;54.856;26.318;2023-02-19T23:36:18;2.3;61.7
53954;HTU21D;39862;54.856;26.318;2023-02-19T23:41:13;2.3;61.7
53954;HTU21D;39862;54.856;26.318;2023-02-19T23:46:26;2.3;61.7
53954;HTU21D;39862;54.856;26.318;2023-02-19T23:51:42;2.3;61.7
53954;HTU21D;39862;54.856;26.318;2023-02-19T23:56:12;2.3;61.7
